createdAt,value
2023-11-27T00:00:37.591Z,7.80
2023-11-27T00:03:08.377Z,8.00
2023-11-27T00:05:35.615Z,7.50
2023-11-27T00:08:02.763Z,8.00
2023-11-27T00:10:29.987Z,8.03
2023-11-27T00:13:01.075Z,8.53
2023-11-27T00:15:28.770Z,7.90
2023-11-27T00:17:56.250Z,8.57
2023-11-27T00:20:23.745Z,7.20
2023-11-27T00:22:50.839Z,7.53
2023-11-27T00:25:18.067Z,6.70
2023-11-27T00:27:45.120Z,7.93
2023-11-27T00:30:13.012Z,8.10
2023-11-27T00:32:40.545Z,8.03
2023-11-27T00:35:09.474Z,7.63
2023-11-27T00:37:36.437Z,7.67
2023-11-27T00:40:03.630Z,9.20
2023-11-27T00:42:30.533Z,8.13
2023-11-27T00:44:57.459Z,8.30
2023-11-27T00:47:24.533Z,8.20
2023-11-27T00:49:51.599Z,8.37
2023-11-27T00:52:19.573Z,8.73
2023-11-27T00:54:49.047Z,8.97
2023-11-27T00:57:16.003Z,8.47
2023-11-27T00:59:44.046Z,9.40
2023-11-27T01:02:11.304Z,9.63
2023-11-27T01:04:41.400Z,9.80
2023-11-27T01:07:08.398Z,9.00
2023-11-27T01:09:38.290Z,9.90
2023-11-27T01:12:05.490Z,10.27
2023-11-27T01:14:32.574Z,8.67
2023-11-27T01:17:00.355Z,9.70
2023-11-27T01:19:27.703Z,10.10
2023-11-27T01:21:54.849Z,10.10
2023-11-27T01:24:24.232Z,10.17
2023-11-27T01:26:53.529Z,10.20
2023-11-27T01:29:22.927Z,10.57
2023-11-27T01:31:50.901Z,10.13
2023-11-27T01:34:18.377Z,10.63
2023-11-27T01:36:45.588Z,10.80
2023-11-27T01:39:12.724Z,10.37
2023-11-27T01:41:40.149Z,10.90
2023-11-27T01:44:07.732Z,10.40
2023-11-27T01:46:35.870Z,10.40
2023-11-27T01:49:02.961Z,10.80
2023-11-27T01:51:30.883Z,10.70
2023-11-27T01:53:59.753Z,10.83
2023-11-27T01:56:28.909Z,10.60
2023-11-27T01:58:58.252Z,10.53
2023-11-27T02:01:25.719Z,11.40
2023-11-27T02:03:52.842Z,11.30
2023-11-27T02:06:19.835Z,10.73
2023-11-27T02:08:47.455Z,11.53
2023-11-27T02:11:19.789Z,11.37
2023-11-27T02:13:47.137Z,10.97
2023-11-27T02:16:15.462Z,11.13
2023-11-27T02:18:43.337Z,11.27
2023-11-27T02:21:12.267Z,10.80
2023-11-27T02:23:39.985Z,11.33
2023-11-27T02:26:07.600Z,11.30
2023-11-27T02:28:34.654Z,11.13
2023-11-27T02:31:02.327Z,11.33
2023-11-27T02:33:29.417Z,11.03
2023-11-27T02:35:56.438Z,10.87
2023-11-27T02:38:23.592Z,11.10
2023-11-27T02:40:52.137Z,11.47
2023-11-27T02:43:19.498Z,11.10
2023-11-27T02:45:46.823Z,12.03
2023-11-27T02:48:14.128Z,10.53
2023-11-27T02:50:41.159Z,11.70
2023-11-27T02:53:08.428Z,11.10
2023-11-27T02:55:35.396Z,12.00
2023-11-27T02:58:02.637Z,12.70
2023-11-27T03:00:29.748Z,11.97
2023-11-27T03:02:57.251Z,12.60
2023-11-27T03:05:24.651Z,12.53
2023-11-27T03:07:51.742Z,12.17
2023-11-27T03:10:18.793Z,12.50
2023-11-27T03:12:45.915Z,12.83
2023-11-27T03:15:13.302Z,11.67
2023-11-27T03:17:42.418Z,12.50
2023-11-27T03:20:12.008Z,11.77
2023-11-27T03:22:39.447Z,11.83
2023-11-27T03:25:06.951Z,12.53
2023-11-27T03:27:34.077Z,12.23
2023-11-27T03:30:04.747Z,12.93
2023-11-27T03:32:33.343Z,12.10
2023-11-27T03:35:01.421Z,12.90
2023-11-27T03:37:28.422Z,13.23
2023-11-27T03:39:55.556Z,13.00
2023-11-27T03:42:22.776Z,13.63
2023-11-27T03:44:49.841Z,13.30
2023-11-27T03:47:16.973Z,13.20
2023-11-27T03:49:43.972Z,14.30
2023-11-27T03:52:10.965Z,13.73
2023-11-27T03:54:38.010Z,14.33
2023-11-27T03:57:05.335Z,13.87
2023-11-27T03:59:32.372Z,15.70
2023-11-27T04:01:59.898Z,13.57
2023-11-27T04:04:27.647Z,15.60
2023-11-27T04:06:55.798Z,15.67
2023-11-27T04:09:23.205Z,15.20
2023-11-27T04:11:50.845Z,14.57
2023-11-27T04:14:19.451Z,13.77
2023-11-27T04:16:46.517Z,14.93
2023-11-27T04:19:13.739Z,15.60
2023-11-27T04:21:40.819Z,16.00
2023-11-27T04:24:08.313Z,15.07
2023-11-27T04:26:35.838Z,15.47
2023-11-27T04:29:04.131Z,15.43
2023-11-27T04:31:31.447Z,16.17
2023-11-27T04:33:58.649Z,15.87
2023-11-27T04:36:25.572Z,17.33
2023-11-27T04:38:52.533Z,16.47
2023-11-27T04:41:20.907Z,16.57
2023-11-27T04:43:47.991Z,15.73
2023-11-27T04:46:15.402Z,15.60
2023-11-27T04:48:42.733Z,16.40
2023-11-27T04:51:10.180Z,16.87
2023-11-27T04:53:37.242Z,16.17
2023-11-27T04:56:04.556Z,16.40
2023-11-27T04:58:31.671Z,15.13
2023-11-27T05:01:00.136Z,16.17
2023-11-27T05:03:28.358Z,17.13
2023-11-27T05:06:00.009Z,16.37
2023-11-27T05:08:27.944Z,16.50
2023-11-27T05:10:55.284Z,16.73
2023-11-27T05:13:22.764Z,17.57
2023-11-27T05:15:50.131Z,16.83
2023-11-27T05:18:17.263Z,16.07
2023-11-27T05:20:44.241Z,18.20
2023-11-27T05:23:11.274Z,17.00
2023-11-27T05:25:38.934Z,16.13
2023-11-27T05:28:06.058Z,16.97
2023-11-27T05:30:33.127Z,17.67
2023-11-27T05:33:00.349Z,15.77
2023-11-27T05:35:28.722Z,16.80
2023-11-27T05:37:55.725Z,16.13
2023-11-27T05:40:23.681Z,16.37
2023-11-27T05:42:50.771Z,16.47
2023-11-27T05:45:18.901Z,16.67
2023-11-27T05:47:46.279Z,16.20
2023-11-27T05:50:15.962Z,16.87
2023-11-27T05:52:43.241Z,17.57
2023-11-27T05:55:10.469Z,16.70
2023-11-27T05:57:38.260Z,17.77
2023-11-27T06:00:07.220Z,16.80
2023-11-27T06:02:40.204Z,18.33
2023-11-27T06:05:07.857Z,22.85
2023-11-27T06:07:37.914Z,19.40
2023-11-27T06:10:05.511Z,19.30
2023-11-27T06:12:32.492Z,18.87
2023-11-27T06:14:59.430Z,19.27
2023-11-27T06:17:26.618Z,17.93
2023-11-27T06:19:53.764Z,18.07
2023-11-27T06:22:20.962Z,18.97
2023-11-27T06:24:49.192Z,17.93
2023-11-27T06:27:16.741Z,19.27
2023-11-27T06:29:44.216Z,20.10
2023-11-27T06:32:11.275Z,18.90
2023-11-27T06:34:38.901Z,18.67
2023-11-27T06:37:05.937Z,19.57
2023-11-27T06:39:34.928Z,18.33
2023-11-27T06:42:03.573Z,18.70
2023-11-27T06:44:30.566Z,19.80
2023-11-27T06:47:00.286Z,18.23
2023-11-27T06:49:28.017Z,19.55
2023-11-27T06:51:55.148Z,21.37
2023-11-27T06:54:22.064Z,18.57
2023-11-27T06:56:49.332Z,18.57
2023-11-27T06:59:16.393Z,19.03
2023-11-27T07:01:43.559Z,19.23
2023-11-27T07:04:10.939Z,19.40
2023-11-27T07:06:41.182Z,19.47
2023-11-27T07:09:08.560Z,18.30
2023-11-27T07:11:36.192Z,18.40
2023-11-27T07:14:04.071Z,18.00
2023-11-27T07:16:32.010Z,18.33
2023-11-27T07:18:59.356Z,17.00
2023-11-27T07:21:30.044Z,16.87
2023-11-27T07:23:57.810Z,18.70
2023-11-27T07:26:28.138Z,19.07
2023-11-27T07:28:55.338Z,19.77
2023-11-27T07:31:23.218Z,17.73
2023-11-27T07:33:50.336Z,18.90
2023-11-27T07:36:17.360Z,18.47
2023-11-27T07:38:44.449Z,17.20
2023-11-27T07:41:14.180Z,22.42
2023-11-27T07:43:41.590Z,19.13
2023-11-27T07:46:12.487Z,19.77
2023-11-27T07:48:40.462Z,20.67
2023-11-27T07:51:08.658Z,17.83
2023-11-27T07:53:36.441Z,17.70
2023-11-27T07:56:04.309Z,18.00
2023-11-27T07:58:31.315Z,17.07
2023-11-27T08:00:59.673Z,17.87
2023-11-27T08:03:26.930Z,17.20
2023-11-27T08:05:54.076Z,16.53
2023-11-27T08:08:21.790Z,15.77
2023-11-27T08:10:48.889Z,17.07
2023-11-27T08:13:15.846Z,17.27
2023-11-27T08:15:44.209Z,16.13
2023-11-27T08:18:12.918Z,17.37
2023-11-27T08:20:40.153Z,14.83
2023-11-27T08:23:07.194Z,18.30
2023-11-27T08:25:34.541Z,17.50
2023-11-27T08:28:03.684Z,16.50
2023-11-27T08:30:34.118Z,16.33
2023-11-27T08:33:02.381Z,17.43
2023-11-27T08:35:30.205Z,16.63
2023-11-27T08:37:57.255Z,15.70
2023-11-27T08:40:24.388Z,15.83
2023-11-27T08:42:51.400Z,16.23
2023-11-27T08:45:19.527Z,16.37
2023-11-27T08:47:54.270Z,15.07
2023-11-27T08:50:28.441Z,16.70
2023-11-27T08:52:59.955Z,17.27
2023-11-27T08:55:32.756Z,16.87
2023-11-27T08:58:04.566Z,15.80
2023-11-27T09:00:32.414Z,15.37
2023-11-27T09:03:01.606Z,16.20
2023-11-27T09:05:33.473Z,15.80
2023-11-27T09:08:06.152Z,16.97
2023-11-27T09:10:34.673Z,17.87
2023-11-27T09:13:02.191Z,17.07
2023-11-27T09:15:29.342Z,17.00
2023-11-27T09:17:57.120Z,16.20
2023-11-27T09:20:24.231Z,17.27
2023-11-27T09:22:51.531Z,16.27
2023-11-27T09:25:19.011Z,16.73
2023-11-27T09:27:47.509Z,15.57
2023-11-27T09:30:14.622Z,18.37
2023-11-27T09:32:41.991Z,15.50
2023-11-27T09:35:11.834Z,16.50
2023-11-27T09:37:40.360Z,16.93
2023-11-27T09:40:12.271Z,15.40
2023-11-27T09:42:46.917Z,16.60
2023-11-27T09:45:20.579Z,17.00
2023-11-27T09:47:52.557Z,16.03
2023-11-27T09:50:22.346Z,15.20
2023-11-27T09:53:07.577Z,16.00
2023-11-27T09:55:41.811Z,14.10
2023-11-27T09:58:11.973Z,14.63
2023-11-27T10:00:43.122Z,13.80
2023-11-27T10:03:10.480Z,15.70
2023-11-27T10:05:38.932Z,14.23
2023-11-27T10:08:10.205Z,16.17
2023-11-27T10:10:37.458Z,15.77
2023-11-27T10:13:18.164Z,16.97
2023-11-27T10:15:59.799Z,16.00
2023-11-27T10:18:27.036Z,16.63
2023-11-27T10:20:54.008Z,16.47
2023-11-27T10:23:22.410Z,17.30
2023-11-27T10:25:59.172Z,16.07
2023-11-27T10:28:42.081Z,17.90
2023-11-27T10:31:09.919Z,17.03
2023-11-27T10:33:37.476Z,17.63
2023-11-27T10:36:06.786Z,16.30
2023-11-27T10:38:37.539Z,17.90
2023-11-27T10:41:06.840Z,17.67
2023-11-27T10:43:36.681Z,17.10
2023-11-27T10:46:09.410Z,18.43
2023-11-27T10:48:44.272Z,18.13
2023-11-27T10:51:16.295Z,19.00
2023-11-27T10:53:50.583Z,19.47
2023-11-27T10:56:20.698Z,20.73
2023-11-27T10:58:49.298Z,21.73
2023-11-27T11:01:20.580Z,21.53
2023-11-27T11:03:56.608Z,20.00
2023-11-27T11:06:26.823Z,20.20
2023-11-27T11:09:00.000Z,19.87
2023-11-27T11:11:27.775Z,20.60
2023-11-27T11:13:55.030Z,21.40
2023-11-27T11:16:33.131Z,21.67
2023-11-27T11:19:17.807Z,21.30
2023-11-27T11:21:59.767Z,21.57
2023-11-27T11:24:53.631Z,21.93
2023-11-27T11:27:46.675Z,21.70
2023-11-27T11:30:15.805Z,21.20
2023-11-27T11:32:43.021Z,21.70
2023-11-27T11:35:12.509Z,21.50
2023-11-27T11:37:50.480Z,22.50
2023-11-27T11:40:20.182Z,22.33
2023-11-27T11:42:49.496Z,22.87
2023-11-27T11:45:19.462Z,23.23
2023-11-27T11:47:57.692Z,23.10
2023-11-27T11:50:35.931Z,23.13
2023-11-27T11:53:12.096Z,22.13
2023-11-27T11:55:40.950Z,22.17
2023-11-27T11:58:20.466Z,21.13
2023-11-27T12:00:48.693Z,19.83
2023-11-27T12:03:23.964Z,20.70
2023-11-27T12:05:55.499Z,19.63
2023-11-27T12:08:27.264Z,20.03
2023-11-27T12:10:56.057Z,20.37
2023-11-27T12:13:25.399Z,19.70
2023-11-27T12:15:53.793Z,18.70
2023-11-27T12:18:21.380Z,19.33
2023-11-27T12:20:51.934Z,19.30
2023-11-27T12:23:19.737Z,17.43
2023-11-27T12:25:46.841Z,19.70
2023-11-27T12:28:14.834Z,19.37
2023-11-27T12:30:42.039Z,17.43
2023-11-27T12:33:10.093Z,20.20
2023-11-27T12:35:38.705Z,19.00
2023-11-27T12:38:09.580Z,20.07
2023-11-27T12:40:37.117Z,19.10
2023-11-27T12:43:08.751Z,19.23
2023-11-27T12:45:37.814Z,19.57
2023-11-27T12:48:08.712Z,18.47
2023-11-27T12:50:41.640Z,19.20
2023-11-27T12:53:10.156Z,20.50
2023-11-27T12:55:39.382Z,20.03
2023-11-27T12:58:14.522Z,19.57
2023-11-27T13:00:47.104Z,20.10
2023-11-27T13:03:21.333Z,18.37
2023-11-27T13:05:55.718Z,20.63
2023-11-27T13:08:25.908Z,20.73
2023-11-27T13:10:54.222Z,20.33
2023-11-27T13:13:22.904Z,20.97
2023-11-27T13:15:53.677Z,20.20
2023-11-27T13:18:20.894Z,20.43
2023-11-27T13:20:54.680Z,24.70
2023-11-27T13:23:22.658Z,21.73
2023-11-27T13:25:50.959Z,20.70
2023-11-27T13:28:18.977Z,22.27
2023-11-27T13:30:49.617Z,21.30
2023-11-27T13:33:16.794Z,19.37
2023-11-27T13:35:45.767Z,21.27
2023-11-27T13:38:16.927Z,21.27
2023-11-27T13:40:51.031Z,27.55
2023-11-27T13:43:19.935Z,23.07
2023-11-27T13:45:50.103Z,21.83
2023-11-27T13:48:27.104Z,22.30
2023-11-27T13:50:58.839Z,21.60
2023-11-27T13:53:26.172Z,22.80
2023-11-27T13:56:04.360Z,22.93
2023-11-27T13:58:33.616Z,21.53
2023-11-27T14:01:12.538Z,21.07
2023-11-27T14:03:43.307Z,22.03
2023-11-27T14:06:31.030Z,21.00
2023-11-27T14:09:05.284Z,19.97
2023-11-27T14:11:35.610Z,20.43
2023-11-27T14:14:11.135Z,20.87
2023-11-27T14:16:46.139Z,19.77
2023-11-27T14:19:14.881Z,24.48
2023-11-27T14:21:49.297Z,20.50
2023-11-27T14:24:16.850Z,18.87
2023-11-27T14:26:53.197Z,18.07
2023-11-27T14:29:24.666Z,17.20
2023-11-27T14:31:52.888Z,18.93
2023-11-27T14:34:26.000Z,17.80
2023-11-27T14:36:53.700Z,18.07
2023-11-27T14:39:22.664Z,17.90
2023-11-27T14:41:56.233Z,18.63
2023-11-27T14:44:24.956Z,17.43
2023-11-27T14:46:54.710Z,17.20
2023-11-27T14:49:32.110Z,16.90
2023-11-27T14:52:08.864Z,17.87
2023-11-27T14:54:36.883Z,16.60
2023-11-27T14:57:10.918Z,17.73
2023-11-27T14:59:40.277Z,18.57
2023-11-27T15:02:10.183Z,18.00
2023-11-27T15:04:40.332Z,16.17
2023-11-27T15:07:09.342Z,16.43
2023-11-27T15:09:37.453Z,17.20
2023-11-27T15:12:06.211Z,16.53
2023-11-27T15:14:33.573Z,15.07
2023-11-27T15:17:00.790Z,17.03
2023-11-27T15:19:27.941Z,15.93
2023-11-27T15:21:57.574Z,17.50
2023-11-27T15:24:24.983Z,16.23
2023-11-27T15:26:55.171Z,16.53
2023-11-27T15:29:29.342Z,16.20
2023-11-27T15:31:56.722Z,14.30
2023-11-27T15:34:24.190Z,14.13
2023-11-27T15:36:53.114Z,12.53
2023-11-27T15:39:34.190Z,13.53
2023-11-27T15:42:07.568Z,13.73
2023-11-27T15:44:35.772Z,13.93
2023-11-27T15:47:02.900Z,13.97
2023-11-27T15:49:30.966Z,13.33
2023-11-27T15:51:58.054Z,14.07
2023-11-27T15:54:25.102Z,13.93
2023-11-27T15:56:52.446Z,14.50
2023-11-27T15:59:19.793Z,13.93
2023-11-27T16:01:48.068Z,14.73
2023-11-27T16:04:16.284Z,14.40
2023-11-27T16:06:43.331Z,14.43
2023-11-27T16:09:10.420Z,15.60
2023-11-27T16:11:37.457Z,15.13
2023-11-27T16:14:13.909Z,16.47
2023-11-27T16:16:52.153Z,16.47
2023-11-27T16:19:20.155Z,15.87
2023-11-27T16:21:49.890Z,16.13
2023-11-27T16:24:17.084Z,16.70
2023-11-27T16:26:44.329Z,15.53
2023-11-27T16:29:12.154Z,16.63
2023-11-27T16:31:40.441Z,17.33
2023-11-27T16:34:07.690Z,17.27
2023-11-27T16:36:35.088Z,16.47
2023-11-27T16:39:05.238Z,18.07
2023-11-27T16:41:32.287Z,17.40
2023-11-27T16:43:59.606Z,18.73
2023-11-27T16:46:27.991Z,18.40
2023-11-27T16:48:55.024Z,18.33
2023-11-27T16:51:22.471Z,17.50
2023-11-27T16:53:49.531Z,16.70
2023-11-27T16:56:16.862Z,15.97
2023-11-27T16:58:45.087Z,15.17
2023-11-27T17:01:15.729Z,16.53
2023-11-27T17:03:43.643Z,14.53
2023-11-27T17:06:11.212Z,15.83
2023-11-27T17:08:39.434Z,15.73
2023-11-27T17:11:07.349Z,16.63
2023-11-27T17:13:34.352Z,14.30
2023-11-27T17:16:01.472Z,15.43
2023-11-27T17:18:29.040Z,16.67
2023-11-27T17:20:56.397Z,11.67
2023-11-27T17:23:24.318Z,15.00
2023-11-27T17:25:53.320Z,16.87
2023-11-27T17:28:25.643Z,17.23
2023-11-27T17:30:53.159Z,18.10
2023-11-27T17:33:20.182Z,16.33
2023-11-27T17:35:47.507Z,17.10
2023-11-27T17:38:14.502Z,13.37
2023-11-27T17:40:42.584Z,15.70
2023-11-27T17:43:12.118Z,14.70
2023-11-27T17:45:43.117Z,15.53
2023-11-27T17:48:10.349Z,14.13
2023-11-27T17:50:37.429Z,15.70
2023-11-27T17:53:05.732Z,17.73
2023-11-27T17:55:39.312Z,18.23
2023-11-27T17:58:14.421Z,20.50
2023-11-27T18:00:43.616Z,20.63
2023-11-27T18:03:10.766Z,20.47
2023-11-27T18:05:37.904Z,19.87
2023-11-27T18:08:05.089Z,20.47
2023-11-27T18:10:34.102Z,20.10
2023-11-27T18:13:05.701Z,21.63
2023-11-27T18:15:33.557Z,22.60
2023-11-27T18:18:01.378Z,23.30
2023-11-27T18:20:29.458Z,23.57
2023-11-27T18:22:56.503Z,24.57
2023-11-27T18:25:24.876Z,23.10
2023-11-27T18:27:55.335Z,22.40
2023-11-27T18:30:22.552Z,24.70
2023-11-27T18:32:49.779Z,25.13
2023-11-27T18:35:20.358Z,25.00
2023-11-27T18:37:49.394Z,25.33
2023-11-27T18:40:19.328Z,27.63
2023-11-27T18:42:52.204Z,26.53
2023-11-27T18:45:23.891Z,26.33
2023-11-27T18:47:51.615Z,26.80
2023-11-27T18:50:18.766Z,29.07
2023-11-27T18:52:45.906Z,29.57
2023-11-27T18:55:13.131Z,28.97
2023-11-27T18:57:40.784Z,30.13
2023-11-27T19:00:11.587Z,30.57
2023-11-27T19:02:38.737Z,28.20
2023-11-27T19:05:06.978Z,28.43
2023-11-27T19:07:33.995Z,30.33
2023-11-27T19:10:01.219Z,29.37
2023-11-27T19:12:28.344Z,28.60
2023-11-27T19:14:55.316Z,28.90
2023-11-27T19:17:23.117Z,28.07
2023-11-27T19:19:50.695Z,28.00
2023-11-27T19:22:18.308Z,29.30
2023-11-27T19:24:48.864Z,28.73
2023-11-27T19:27:16.768Z,29.87
2023-11-27T19:29:44.301Z,28.80
2023-11-27T19:32:11.575Z,31.17
2023-11-27T19:34:38.784Z,31.80
2023-11-27T19:37:08.834Z,31.97
2023-11-27T19:39:36.472Z,29.87
2023-11-27T19:42:05.211Z,30.67
2023-11-27T19:44:32.798Z,30.90
2023-11-27T19:47:00.118Z,31.10
2023-11-27T19:49:27.452Z,30.10
2023-11-27T19:51:55.131Z,31.30
2023-11-27T19:54:23.476Z,31.10
2023-11-27T19:56:50.891Z,29.10
2023-11-27T19:59:18.735Z,32.00
2023-11-27T20:01:45.923Z,30.50
2023-11-27T20:04:13.393Z,31.20
2023-11-27T20:06:43.066Z,30.47
2023-11-27T20:09:13.799Z,32.07
2023-11-27T20:11:41.411Z,31.73
2023-11-27T20:14:12.705Z,31.63
2023-11-27T20:16:40.923Z,30.10
2023-11-27T20:19:10.626Z,31.90
2023-11-27T20:21:41.794Z,33.00
2023-11-27T20:24:09.534Z,33.37
2023-11-27T20:26:37.108Z,33.60
2023-11-27T20:29:06.679Z,33.77
2023-11-27T20:31:38.901Z,32.77
2023-11-27T20:34:09.775Z,33.13
2023-11-27T20:36:40.605Z,32.70
2023-11-27T20:39:15.621Z,32.67
2023-11-27T20:41:44.504Z,32.30
2023-11-27T20:44:11.713Z,32.23
2023-11-27T20:46:39.191Z,33.20
2023-11-27T20:49:06.301Z,33.13
2023-11-27T20:51:33.717Z,33.27
2023-11-27T20:54:01.513Z,34.63
2023-11-27T20:56:28.653Z,34.97
2023-11-27T20:58:55.680Z,33.43
2023-11-27T21:01:28.551Z,34.27
2023-11-27T21:03:56.460Z,33.77
2023-11-27T21:06:26.456Z,34.10
2023-11-27T21:08:54.390Z,33.83
2023-11-27T21:11:24.590Z,34.87
2023-11-27T21:13:52.840Z,34.23
2023-11-27T21:16:21.521Z,34.97
2023-11-27T21:18:50.004Z,32.93
2023-11-27T21:21:17.382Z,33.47
2023-11-27T21:23:44.377Z,34.73
2023-11-27T21:26:13.158Z,34.43
2023-11-27T21:28:42.641Z,34.50
2023-11-27T21:31:10.407Z,34.73
2023-11-27T21:33:37.889Z,33.87
2023-11-27T21:36:05.111Z,33.00
2023-11-27T21:38:32.243Z,33.73
2023-11-27T21:40:59.416Z,33.03
2023-11-27T21:43:26.688Z,33.30
2023-11-27T21:45:54.411Z,31.70
2023-11-27T21:48:21.745Z,31.67
2023-11-27T21:50:48.775Z,33.43
2023-11-27T21:53:16.508Z,32.47
2023-11-27T21:55:43.950Z,33.70
2023-11-27T21:58:11.091Z,33.57
2023-11-27T22:00:38.075Z,33.47
2023-11-27T22:03:05.295Z,33.67
2023-11-27T22:05:32.336Z,31.77
2023-11-27T22:07:59.346Z,33.83
2023-11-27T22:10:26.539Z,32.17
2023-11-27T22:12:53.508Z,32.83
2023-11-27T22:15:21.442Z,33.33
2023-11-27T22:17:48.777Z,34.93
2023-11-27T22:20:15.863Z,32.00
2023-11-27T22:22:44.246Z,33.57
2023-11-27T22:25:11.887Z,33.73
2023-11-27T22:27:39.343Z,33.33
2023-11-27T22:30:08.320Z,33.73
2023-11-27T22:32:35.691Z,32.83
2023-11-27T22:35:02.853Z,33.30
2023-11-27T22:37:29.988Z,32.63
2023-11-27T22:39:57.252Z,31.97
2023-11-27T22:42:24.234Z,33.53
2023-11-27T22:44:51.262Z,32.40
2023-11-27T22:47:18.314Z,33.83
2023-11-27T22:49:45.359Z,34.17
2023-11-27T22:52:13.432Z,34.10
2023-11-27T22:54:45.233Z,34.43
2023-11-27T22:57:12.489Z,33.70
2023-11-27T22:59:40.027Z,33.03
2023-11-27T23:02:07.922Z,32.00
2023-11-27T23:04:35.770Z,33.47
2023-11-27T23:07:02.954Z,33.90
2023-11-27T23:09:29.973Z,34.77
2023-11-27T23:11:57.716Z,33.17
2023-11-27T23:14:24.887Z,33.23
2023-11-27T23:16:52.927Z,33.73
2023-11-27T23:19:20.417Z,31.97
2023-11-27T23:21:48.234Z,32.10
2023-11-27T23:24:20.806Z,32.67
2023-11-27T23:26:54.527Z,33.33
2023-11-27T23:29:22.956Z,32.13
2023-11-27T23:31:52.392Z,31.77
2023-11-27T23:34:21.650Z,30.90
2023-11-27T23:36:48.767Z,31.43
2023-11-27T23:39:15.889Z,31.43
2023-11-27T23:41:43.190Z,31.60
2023-11-27T23:44:10.182Z,30.10
2023-11-27T23:46:37.282Z,30.97
2023-11-27T23:49:04.624Z,31.07
2023-11-27T23:51:31.797Z,31.33
2023-11-27T23:53:58.827Z,31.00
2023-11-27T23:56:26.004Z,31.87
2023-11-27T23:58:53.264Z,31.23
